Tuesday, October 17, 2017, 2:55 PM EDT
Back to Local

KOXC, Oxford, Waterbury-oxford Airport

Location: Oxford, CT, United States Lat: 41.483
Local Time: 2:55 PM EDT (18:55 GMT) Lon: -73.133
Time Zone: US/Eastern Elev: 725 ft

Show me the last for .
Show Coded

Time T Td Feel RH Dir Speed Gust Alt SLP Vis Weather Sky Remarks
2017-10-17 13:51 54 30 - 39 Variable 3 - 30.27 30.31 10 CLR 6-hr Min Temp (2pm): 35.1°F
6-hr Max Temp (2pm): 54.0°F
2017-10-17 12:51 52 30 - 42 310° 7 - 30.29 30.34 10 CLR None
2017-10-17 11:51 48 28 - 45 - Calm - 30.30 30.35 10 CLR None
2017-10-17 10:51 47 29 43 49 30° 8 - 30.31 30.36 10 CLR None
2017-10-17 09:51 44 30 42 57 30° 5 - 30.33 30.37 10 CLR None
2017-10-17 08:51 40 32 37 73 330° 5 - 30.33 30.38 10 CLR None
2017-10-17 07:51 35 32 29 88 330° 7 - 30.30 30.36 10 CLR 6-hr Min Temp (8am): 34.0°F
6-hr Max Temp (8am): 37.9°F
2017-10-17 06:51 35 32 29 88 340° 7 - 30.29 30.34 10 CLR None
2017-10-17 05:51 36 32 32 85 330° 5 - 30.27 30.32 10 CLR None
2017-10-17 04:51 35 32 28 88 330° 9 - 30.24 30.29 10 CLR None
2017-10-17 03:51 36 32 29 85 340° 9 - 30.23 30.28 10 CLR None
2017-10-17 02:51 34 32 28 92 340° 7 - 30.23 30.28 10 CLR None
2017-10-17 01:51 38 34 33 85 320° 6 - 30.21 30.26 10 CLR 6-hr Min Temp (2am): 37.9°F
6-hr Max Temp (2am): 46.0°F
2017-10-17 00:51 40 34 36 79 330° 6 - 30.20 30.25 10 CLR 24-hr Min Temp (1am): 37.9°F
24-hr Max Temp (1am): 64.9°F
2017-10-16 23:51 40 34 37 79 340° 5 - 30.19 30.24 10 CLR None
2017-10-16 22:51 43 34 35 70 330° 14 17 30.18 30.21 10 CLR None
2017-10-16 21:51 44 34 37 67 330° 10 16 30.17 30.21 10 CLR None
2017-10-16 20:51 45 33 39 62 340° 12 - 30.14 30.18 10 CLR None
2017-10-16 19:51 46 36 42 65 330° 9 - 30.13 - 10 CLR None
2017-10-16 18:51 46 36 42 67 350° 8 - 30.09 30.14 10 FEW035 None
2017-10-16 17:51 48 37 43 65 340° 12 - 30.08 30.11 10 SCT035 None
2017-10-16 16:51 49 37 42 63 340° 16 22 30.04 30.08 10 FEW025 None
2017-10-16 15:51 50 38 46 63 330° 10 - 30.04 30.07 10 SCT030 None

Support USWX by starting your Amazon purchase here.